Time;durP1;ratioP1;P1;durP2;ratioP2;P2;SDS_P1;SDS_P2;PMS_P1;PMS_P2;Temp;Humidity;BMP_temperature;BMP_pressure;BME280_temperature;BME280_humidity;BME280_pressure;Samples;Min_cycle;Max_cycle;Signal;HPM_P1;HPM_P2
2022/03/08 00:09:45;;;;;;;5.82;2.90;;;;;;;;;;20926716;28;20049;-59
2022/03/08 00:19:47;;;;;;;3.13;2.38;;;;;;;;;;20911369;28;20087;-59
2022/03/08 00:29:49;;;;;;;5.63;2.63;;;;;;;;;;20922281;28;20556;-66
2022/03/08 00:39:52;;;;;;;4.40;3.35;;;;;;;;;;20926457;28;20053;-60
2022/03/08 00:49:54;;;;;;;3.38;2.60;;;;;;;;;;20925928;28;20420;-60
2022/03/08 00:59:56;;;;;;;4.95;2.55;;;;;;;;;;20926090;28;20109;-60
2022/03/08 01:09:58;;;;;;;5.78;3.17;;;;;;;;;;20940060;28;20048;-60
2022/03/08 01:19:59;;;;;;;4.03;2.78;;;;;;;;;;20922935;28;20084;-60
2022/03/08 01:30:02;;;;;;;4.45;3.40;;;;;;;;;;20922462;28;20400;-59
2022/03/08 01:40:06;;;;;;;4.38;3.70;;;;;;;;;;20920486;28;20127;-60
2022/03/08 01:50:09;;;;;;;6.00;3.45;;;;;;;;;;20920706;28;20060;-59
2022/03/08 02:00:13;;;;;;;6.97;4.00;;;;;;;;;;20920074;28;20130;-60
2022/03/08 02:10:15;;;;;;;5.18;3.85;;;;;;;;;;20919595;28;20045;-59
2022/03/08 02:20:18;;;;;;;9.48;4.57;;;;;;;;;;20919230;28;20049;-60
2022/03/08 02:30:21;;;;;;;6.07;4.45;;;;;;;;;;20918693;28;20110;-59
2022/03/08 02:40:26;;;;;;;5.13;4.60;;;;;;;;;;20916767;28;20056;-59
2022/03/08 02:50:28;;;;;;;6.50;5.13;;;;;;;;;;20916159;28;20253;-61
2022/03/08 03:00:31;;;;;;;9.00;5.95;;;;;;;;;;20915961;28;20555;-60
2022/03/08 03:10:34;;;;;;;8.50;6.25;;;;;;;;;;20914306;28;20140;-59
2022/03/08 03:20:40;;;;;;;9.02;6.50;;;;;;;;;;20914443;28;20063;-60
2022/03/08 03:30:48;;;;;;;11.93;7.07;;;;;;;;;;20913926;28;20049;-62
2022/03/08 03:40:56;;;;;;;9.10;7.40;;;;;;;;;;20912913;28;20060;-59
2022/03/08 03:51:02;;;;;;;9.63;7.77;;;;;;;;;;20913577;28;20077;-61
2022/03/08 04:01:08;;;;;;;10.32;7.13;;;;;;;;;;20919184;28;20049;-60
2022/03/08 04:11:13;;;;;;;13.40;6.87;;;;;;;;;;20928858;28;20475;-59
2022/03/08 04:21:31;;;;;;;9.52;6.40;;;;;;;;;;20928179;28;20209;-60
2022/03/08 04:31:50;;;;;;;8.75;5.72;;;;;;;;;;20926902;28;20463;-57
2022/03/08 04:42:06;;;;;;;;;;;;;;;;;;20926649;28;20063;-59
2022/03/08 04:52:14;;;;;;;6.30;4.40;;;;;;;;;;20925285;28;20002;-59
2022/03/08 05:02:22;;;;;;;5.47;4.15;;;;;;;;;;20939529;28;20167;-60
2022/03/08 05:12:26;;;;;;;9.05;4.55;;;;;;;;;;20922476;28;20067;-59
2022/03/08 05:22:29;;;;;;;7.15;4.30;;;;;;;;;;20923156;28;20247;-59
2022/03/08 05:32:34;;;;;;;7.68;4.55;;;;;;;;;;20922939;28;20052;-59
2022/03/08 05:42:38;;;;;;;8.35;3.83;;;;;;;;;;20921295;28;20049;-62
2022/03/08 05:52:41;;;;;;;4.60;2.97;;;;;;;;;;20921526;28;20048;-58
2022/03/08 06:02:44;;;;;;;6.03;2.80;;;;;;;;;;20919600;28;20049;-59
2022/03/08 06:12:47;;;;;;;6.50;3.58;;;;;;;;;;20919721;28;20052;-61
2022/03/08 06:22:50;;;;;;;4.82;2.90;;;;;;;;;;20917574;28;20144;-58
2022/03/08 06:32:52;;;;;;;5.25;2.65;;;;;;;;;;20915667;28;20048;-58
2022/03/08 06:42:54;;;;;;;6.97;3.28;;;;;;;;;;20916616;28;20481;-58
2022/03/08 06:52:56;;;;;;;5.95;2.75;;;;;;;;;;20916568;28;20107;-59
2022/03/08 07:02:58;;;;;;;7.65;3.67;;;;;;;;;;20915006;28;20049;-58
2022/03/08 07:13:01;;;;;;;6.80;3.53;;;;;;;;;;20914300;28;20045;-59
2022/03/08 07:23:03;;;;;;;5.03;3.30;;;;;;;;;;20913331;28;20408;-59
2022/03/08 07:33:05;;;;;;;9.57;4.00;;;;;;;;;;20911718;28;20049;-59
2022/03/08 07:43:08;;;;;;;7.35;3.95;;;;;;;;;;20913276;28;20048;-59
2022/03/08 07:53:10;;;;;;;9.38;3.78;;;;;;;;;;20912074;28;20443;-59
2022/03/08 08:03:13;;;;;;;4.90;3.00;;;;;;;;;;20911426;28;20128;-60
2022/03/08 08:13:15;;;;;;;8.98;3.85;;;;;;;;;;20910826;28;20060;-60
2022/03/08 08:23:16;;;;;;;10.30;3.53;;;;;;;;;;20910795;28;20072;-58
2022/03/08 08:33:18;;;;;;;7.90;2.55;;;;;;;;;;20910480;28;20056;-60
2022/03/08 08:43:20;;;;;;;2.78;1.70;;;;;;;;;;20910522;28;20048;-60
2022/03/08 08:53:22;;;;;;;3.17;2.13;;;;;;;;;;20926608;28;20136;-60
2022/03/08 09:03:24;;;;;;;3.03;1.85;;;;;;;;;;20925114;28;20489;-58
2022/03/08 09:13:26;;;;;;;4.63;1.98;;;;;;;;;;20923970;28;20044;-60
2022/03/08 09:23:28;;;;;;;4.20;1.38;;;;;;;;;;20922471;28;20065;-61
2022/03/08 09:33:30;;;;;;;3.05;1.33;;;;;;;;;;20921605;28;20041;-61
2022/03/08 09:43:35;;;;;;;2.45;1.50;;;;;;;;;;20920991;28;20193;-60
2022/03/08 09:53:39;;;;;;;2.53;1.00;;;;;;;;;;20918954;28;20507;-68
2022/03/08 10:03:43;;;;;;;5.50;1.58;;;;;;;;;;20916768;28;20110;-72
2022/03/08 10:13:48;;;;;;;3.30;1.70;;;;;;;;;;20908720;28;20056;-60
2022/03/08 10:23:50;;;;;;;3.57;1.63;;;;;;;;;;20916374;28;20052;-59
2022/03/08 10:34:02;;;;;;;3.20;1.20;;;;;;;;;;20885724;28;20389;-62
2022/03/08 10:44:05;;;;;;;1.80;0.90;;;;;;;;;;20902107;28;20053;-59
2022/03/08 10:54:15;;;;;;;3.42;1.60;;;;;;;;;;20915816;28;20563;-60
2022/03/08 11:04:18;;;;;;;9.27;6.22;;;;;;;;;;20915371;28;20091;-57
2022/03/08 11:14:20;;;;;;;4.15;1.67;;;;;;;;;;20913624;28;20076;-59
2022/03/08 11:24:22;;;;;;;2.58;1.30;;;;;;;;;;20913043;28;20118;-61
2022/03/08 11:34:29;;;;;;;4.07;1.70;;;;;;;;;;20912510;28;20049;-61
2022/03/08 11:44:33;;;;;;;2.78;1.30;;;;;;;;;;20867489;28;20056;-63
2022/03/08 11:54:35;;;;;;;2.72;1.17;;;;;;;;;;20911241;28;20061;-59
2022/03/08 12:04:45;;;;;;;4.07;1.40;;;;;;;;;;20911278;28;20045;-56
2022/03/08 12:14:50;;;;;;;2.72;1.40;;;;;;;;;;20910469;28;20088;-63
2022/03/08 12:24:54;;;;;;;2.10;1.20;;;;;;;;;;20920794;28;20053;-64
2022/03/08 12:34:57;;;;;;;2.05;1.00;;;;;;;;;;20925742;28;20049;-56
2022/03/08 12:45:11;;;;;;;1.45;0.95;;;;;;;;;;20925523;28;20045;-57
2022/03/08 12:55:15;;;;;;;51.95;5.32;;;;;;;;;;20924720;28;20052;-57
2022/03/08 13:05:17;;;;;;;5.73;1.60;;;;;;;;;;20924323;28;20408;-58
2022/03/08 13:15:22;;;;;;;3.20;1.10;;;;;;;;;;20923431;28;20049;-55
2022/03/08 13:25:24;;;;;;;4.45;1.42;;;;;;;;;;20922797;28;20068;-56
2022/03/08 13:35:27;;;;;;;3.10;1.58;;;;;;;;;;20920034;28;20045;-55
2022/03/08 13:45:30;;;;;;;2.55;1.52;;;;;;;;;;20920542;28;20048;-54
2022/03/08 13:55:32;;;;;;;3.58;1.65;;;;;;;;;;20920353;28;20536;-58
2022/03/08 14:05:54;;;;;;;4.43;2.25;;;;;;;;;;20919834;28;20425;-62
2022/03/08 14:16:07;;;;;;;7.43;1.30;;;;;;;;;;20918446;28;20106;-57
2022/03/08 14:26:11;;;;;;;18.13;3.03;;;;;;;;;;20917325;28;20099;-64
2022/03/08 14:36:27;;;;;;;2.65;1.40;;;;;;;;;;20915949;28;20135;-63
2022/03/08 14:46:29;;;;;;;2.45;1.30;;;;;;;;;;20915585;28;20377;-58
2022/03/08 14:56:31;;;;;;;4.63;1.30;;;;;;;;;;20915201;28;20512;-62
2022/03/08 15:06:34;;;;;;;2.88;1.30;;;;;;;;;;20915061;28;20057;-55
2022/03/08 15:16:37;;;;;;;2.57;1.30;;;;;;;;;;20914982;28;20065;-55
2022/03/08 15:26:39;;;;;;;3.30;1.35;;;;;;;;;;20913604;28;20076;-55
2022/03/08 15:36:43;;;;;;;6.03;1.50;;;;;;;;;;20912848;28;20056;-55
2022/03/08 15:46:45;;;;;;;3.63;1.27;;;;;;;;;;20913950;28;20049;-55
2022/03/08 15:56:47;;;;;;;2.63;1.50;;;;;;;;;;20911946;28;20394;-55
2022/03/08 16:06:50;;;;;;;4.03;2.15;;;;;;;;;;20913684;28;20068;-63
2022/03/08 16:16:52;;;;;;;3.75;1.38;;;;;;;;;;20913172;28;20514;-66
2022/03/08 16:26:54;;;;;;;6.07;1.30;;;;;;;;;;20910182;28;20071;-63
2022/03/08 16:36:57;;;;;;;3.17;1.15;;;;;;;;;;20904696;28;20049;-63
2022/03/08 16:46:59;;;;;;;2.60;1.05;;;;;;;;;;20907174;28;20045;-64
2022/03/08 16:57:01;;;;;;;3.38;1.63;;;;;;;;;;20906369;28;20044;-57
2022/03/08 17:07:03;;;;;;;4.30;1.40;;;;;;;;;;20898775;28;20050;-57
2022/03/08 17:17:05;;;;;;;5.28;1.85;;;;;;;;;;20904488;28;20511;-59
2022/03/08 17:27:09;;;;;;;3.90;1.45;;;;;;;;;;20913277;28;20057;-56
2022/03/08 17:37:11;;;;;;;4.70;1.50;;;;;;;;;;20917655;28;20374;-54
2022/03/08 17:47:13;;;;;;;2.38;1.20;;;;;;;;;;20914781;28;20463;-54
2022/03/08 17:57:15;;;;;;;5.47;2.47;;;;;;;;;;20916985;28;20393;-56
2022/03/08 18:07:17;;;;;;;6.60;1.70;;;;;;;;;;20913271;28;20120;-56
2022/03/08 18:17:19;;;;;;;3.03;1.45;;;;;;;;;;20910546;28;20052;-69
2022/03/08 18:27:21;;;;;;;4.35;1.63;;;;;;;;;;20913979;28;20555;-57
2022/03/08 18:37:23;;;;;;;4.65;1.77;;;;;;;;;;20917475;28;20492;-57
2022/03/08 18:47:25;;;;;;;3.92;1.65;;;;;;;;;;20916595;28;20045;-57
2022/03/08 18:57:27;;;;;;;7.00;1.88;;;;;;;;;;20915318;28;20106;-59
2022/03/08 19:07:29;;;;;;;5.28;2.00;;;;;;;;;;20914605;28;20056;-55
2022/03/08 19:17:31;;;;;;;6.30;2.00;;;;;;;;;;20915010;28;20053;-55
2022/03/08 19:27:33;;;;;;;4.50;1.83;;;;;;;;;;20914090;28;20500;-56
2022/03/08 19:37:35;;;;;;;6.07;2.88;;;;;;;;;;20913882;28;20555;-55
2022/03/08 19:47:37;;;;;;;5.13;1.88;;;;;;;;;;20912754;28;20083;-59
2022/03/08 19:57:39;;;;;;;3.90;2.20;;;;;;;;;;20913487;28;20496;-57
2022/03/08 20:07:41;;;;;;;4.70;2.00;;;;;;;;;;20912626;28;20081;-57
2022/03/08 20:17:44;;;;;;;3.63;2.30;;;;;;;;;;20911192;28;20048;-58
2022/03/08 20:27:46;;;;;;;7.57;2.70;;;;;;;;;;20912538;28;20049;-59
2022/03/08 20:37:49;;;;;;;7.38;3.67;;;;;;;;;;20912811;28;20513;-58
2022/03/08 20:47:51;;;;;;;10.50;4.18;;;;;;;;;;20924346;28;20045;-56
2022/03/08 20:57:53;;;;;;;8.63;4.03;;;;;;;;;;20927297;28;20053;-59
2022/03/08 21:07:56;;;;;;;10.30;3.97;;;;;;;;;;20925154;28;20056;-58
2022/03/08 21:17:59;;;;;;;7.03;3.30;;;;;;;;;;20924861;28;20409;-56
2022/03/08 21:28:01;;;;;;;8.75;2.58;;;;;;;;;;20924578;28;20473;-59
2022/03/08 21:38:03;;;;;;;9.05;2.95;;;;;;;;;;20923536;28;20523;-54
2022/03/08 21:48:06;;;;;;;6.55;2.13;;;;;;;;;;20922958;28;20518;-56
2022/03/08 21:58:08;;;;;;;6.63;2.55;;;;;;;;;;20921320;28;20044;-60
2022/03/08 22:08:11;;;;;;;5.00;2.63;;;;;;;;;;20921811;28;20400;-57
2022/03/08 22:18:13;;;;;;;6.45;2.97;;;;;;;;;;20920382;28;20420;-56
2022/03/08 22:28:15;;;;;;;8.27;3.65;;;;;;;;;;20920042;28;20053;-54
2022/03/08 22:38:17;;;;;;;7.05;3.50;;;;;;;;;;20918078;28;20049;-58
2022/03/08 22:48:19;;;;;;;7.50;2.65;;;;;;;;;;20918628;28;20477;-59
2022/03/08 22:58:21;;;;;;;6.90;2.08;;;;;;;;;;20918245;28;20508;-60
2022/03/08 23:08:24;;;;;;;5.38;2.50;;;;;;;;;;20915511;28;20126;-54
2022/03/08 23:18:26;;;;;;;6.93;2.80;;;;;;;;;;20915244;28;20417;-56
2022/03/08 23:28:28;;;;;;;7.85;3.00;;;;;;;;;;20915492;28;20049;-56
2022/03/08 23:38:30;;;;;;;8.02;3.22;;;;;;;;;;20915144;28;20041;-58
2022/03/08 23:48:32;;;;;;;6.53;3.30;;;;;;;;;;20914750;28;20135;-57
2022/03/08 23:58:34;;;;;;;5.63;3.88;;;;;;;;;;20914364;28;20057;-57
